createdAt,value
2019-03-22T00:01:11.250Z,5.89
2019-03-22T00:03:42.534Z,5.87
2019-03-22T00:06:13.933Z,5.78
2019-03-22T00:08:45.387Z,5.82
2019-03-22T00:11:16.737Z,5.80
2019-03-22T00:13:48.145Z,5.64
2019-03-22T00:16:19.500Z,5.60
2019-03-22T00:18:50.822Z,5.67
2019-03-22T00:21:22.189Z,5.43
2019-03-22T00:23:53.562Z,5.42
2019-03-22T00:26:25.023Z,5.39
2019-03-22T00:28:56.410Z,5.22
2019-03-22T00:31:27.740Z,5.20
2019-03-22T00:33:59.107Z,5.10
2019-03-22T00:36:30.428Z,5.06
2019-03-22T00:39:01.830Z,5.04
2019-03-22T00:41:34.656Z,4.89
2019-03-22T00:44:05.935Z,4.82
2019-03-22T00:46:37.255Z,4.83
2019-03-22T00:49:08.652Z,4.76
2019-03-22T00:51:41.084Z,4.78
2019-03-22T00:54:12.374Z,4.81
2019-03-22T00:56:43.631Z,4.82
2019-03-22T00:59:14.979Z,4.74
2019-03-22T01:01:46.270Z,4.69
2019-03-22T01:04:17.669Z,4.57
2019-03-22T01:06:49.001Z,4.59
2019-03-22T01:09:20.259Z,4.56
2019-03-22T01:11:51.594Z,4.71
2019-03-22T01:14:23.078Z,4.85
2019-03-22T01:16:54.468Z,4.77
2019-03-22T01:19:25.684Z,4.79
2019-03-22T01:21:57.019Z,4.84
2019-03-22T01:24:28.259Z,4.82
2019-03-22T01:26:59.580Z,5.09
2019-03-22T01:29:32.135Z,5.15
2019-03-22T01:32:03.382Z,5.16
2019-03-22T01:34:34.819Z,5.22
2019-03-22T01:37:07.421Z,5.38
2019-03-22T01:39:38.644Z,5.25
2019-03-22T01:42:09.964Z,5.19
2019-03-22T01:44:41.215Z,5.21
2019-03-22T01:47:12.470Z,5.15
2019-03-22T01:49:43.867Z,5.29
2019-03-22T01:52:15.264Z,5.30
2019-03-22T01:54:46.526Z,5.15
2019-03-22T01:57:17.794Z,5.30
2019-03-22T01:59:49.244Z,5.15
2019-03-22T02:02:20.632Z,5.11
2019-03-22T02:04:53.090Z,5.16
2019-03-22T02:07:24.335Z,5.10
2019-03-22T02:09:55.828Z,5.06
2019-03-22T02:12:27.127Z,4.97
2019-03-22T02:14:58.468Z,5.07
2019-03-22T02:17:29.837Z,4.96
2019-03-22T02:20:02.193Z,5.17
2019-03-22T02:22:33.461Z,5.00
2019-03-22T02:25:06.191Z,5.09
2019-03-22T02:27:37.673Z,5.03
2019-03-22T02:30:11.320Z,5.01
2019-03-22T02:32:42.723Z,5.06
2019-03-22T02:35:27.565Z,5.10
2019-03-22T02:37:47.141Z,5.05
2019-03-22T02:40:18.491Z,5.05
2019-03-22T02:42:49.812Z,4.92
2019-03-22T02:45:21.145Z,4.91
2019-03-22T02:47:54.024Z,4.80
2019-03-22T02:50:25.293Z,4.93
2019-03-22T02:52:56.650Z,4.92
2019-03-22T02:55:28.088Z,4.93
2019-03-22T02:57:59.447Z,4.88
2019-03-22T03:00:30.708Z,4.92
2019-03-22T03:03:02.048Z,4.94
2019-03-22T03:05:33.363Z,4.96
2019-03-22T03:08:04.714Z,5.05
2019-03-22T03:10:36.028Z,4.98
2019-03-22T03:13:07.453Z,5.15
2019-03-22T03:15:38.745Z,5.08
2019-03-22T03:18:10.066Z,4.97
2019-03-22T03:20:41.529Z,5.07
2019-03-22T03:23:12.850Z,4.96
2019-03-22T03:25:44.204Z,4.98
2019-03-22T03:28:15.534Z,4.94
2019-03-22T03:30:46.807Z,4.84
2019-03-22T03:33:18.056Z,4.98
2019-03-22T03:35:49.338Z,4.97
2019-03-22T03:38:20.621Z,4.85
2019-03-22T03:40:52.149Z,4.82
2019-03-22T03:43:24.494Z,4.79
2019-03-22T03:45:55.810Z,4.84
2019-03-22T03:48:27.148Z,4.82
2019-03-22T03:50:58.485Z,4.82
2019-03-22T03:53:29.930Z,4.92
2019-03-22T03:56:01.229Z,4.90
2019-03-22T03:58:32.525Z,4.98
2019-03-22T04:01:03.770Z,5.03
2019-03-22T04:03:35.359Z,4.80
2019-03-22T04:06:06.671Z,4.68
2019-03-22T04:08:38.096Z,4.71
2019-03-22T04:11:09.442Z,4.66
2019-03-22T04:13:40.817Z,4.73
2019-03-22T04:16:12.089Z,4.96
2019-03-22T04:18:43.365Z,5.01
2019-03-22T04:21:14.583Z,4.98
2019-03-22T04:23:45.987Z,5.02
2019-03-22T04:26:17.292Z,4.91
2019-03-22T04:28:48.629Z,5.06
2019-03-22T04:31:19.993Z,5.28
2019-03-22T04:33:51.422Z,5.06
2019-03-22T04:36:22.881Z,5.16
2019-03-22T04:38:54.255Z,5.20
2019-03-22T04:41:25.655Z,5.23
2019-03-22T04:43:57.063Z,5.25
2019-03-22T04:46:28.403Z,5.37
2019-03-22T04:48:59.648Z,5.34
2019-03-22T04:51:30.935Z,5.22
2019-03-22T04:54:02.318Z,5.44
2019-03-22T04:56:33.723Z,5.37
2019-03-22T04:59:05.784Z,5.47
2019-03-22T05:01:37.238Z,5.46
2019-03-22T05:04:08.577Z,5.54
2019-03-22T05:06:41.568Z,5.71
2019-03-22T05:09:12.955Z,5.63
2019-03-22T05:11:44.328Z,5.58
2019-03-22T05:14:15.982Z,5.60
2019-03-22T05:16:47.454Z,5.67
2019-03-22T05:19:18.952Z,5.71
2019-03-22T05:21:50.474Z,5.90
2019-03-22T05:24:22.108Z,5.91
2019-03-22T05:26:54.344Z,5.82
2019-03-22T05:29:30.832Z,6.03
2019-03-22T05:32:02.335Z,5.97
2019-03-22T05:34:33.713Z,6.18
2019-03-22T05:37:05.179Z,6.24
2019-03-22T05:39:36.516Z,6.10
2019-03-22T05:42:07.783Z,6.17
2019-03-22T05:44:39.322Z,6.12
2019-03-22T05:47:11.637Z,6.19
2019-03-22T05:49:42.961Z,6.31
2019-03-22T05:52:14.270Z,6.48
2019-03-22T05:54:45.639Z,6.46
2019-03-22T05:57:17.031Z,6.53
2019-03-22T05:59:48.365Z,6.69
2019-03-22T06:02:19.682Z,6.73
2019-03-22T06:04:51.221Z,6.79
2019-03-22T06:07:22.787Z,7.06
2019-03-22T06:09:54.178Z,7.29
2019-03-22T06:12:25.467Z,7.24
2019-03-22T06:14:56.778Z,7.38
2019-03-22T06:17:28.241Z,7.53
2019-03-22T06:20:00.523Z,7.86
2019-03-22T06:22:32.118Z,7.89
2019-03-22T06:25:03.470Z,7.62
2019-03-22T06:27:34.745Z,7.96
2019-03-22T06:30:10.329Z,8.16
2019-03-22T06:32:41.708Z,8.53
2019-03-22T06:35:13.003Z,8.79
2019-03-22T06:37:44.343Z,9.14
2019-03-22T06:40:15.700Z,9.24
2019-03-22T06:42:48.190Z,9.11
2019-03-22T06:45:19.488Z,9.09
2019-03-22T06:47:50.887Z,9.30
2019-03-22T06:50:25.289Z,9.43
2019-03-22T06:52:56.630Z,9.29
2019-03-22T06:55:27.903Z,9.47
2019-03-22T06:57:59.298Z,10.17
2019-03-22T07:00:30.553Z,10.14
2019-03-22T07:03:01.936Z,9.84
2019-03-22T07:05:33.343Z,9.95
2019-03-22T07:08:04.759Z,9.88
2019-03-22T07:10:36.556Z,10.30
2019-03-22T07:13:07.949Z,10.30
2019-03-22T07:15:39.515Z,10.81
2019-03-22T07:18:12.803Z,10.95
2019-03-22T07:20:44.060Z,10.71
2019-03-22T07:23:15.453Z,10.95
2019-03-22T07:25:46.791Z,11.00
2019-03-22T07:28:18.177Z,10.80
2019-03-22T07:30:49.576Z,11.07
2019-03-22T07:33:20.958Z,10.69
2019-03-22T07:35:52.518Z,10.65
2019-03-22T07:38:23.940Z,10.65
2019-03-22T07:40:55.193Z,10.57
2019-03-22T07:43:26.581Z,10.69
2019-03-22T07:45:57.991Z,10.39
2019-03-22T07:48:29.467Z,10.57
2019-03-22T07:51:00.833Z,11.04
2019-03-22T07:53:32.141Z,11.67
2019-03-22T07:56:03.531Z,11.62
2019-03-22T07:58:34.858Z,11.97
2019-03-22T08:01:06.855Z,11.54
2019-03-22T08:03:37.488Z,11.56
2019-03-22T08:06:08.662Z,11.84
2019-03-22T08:08:41.610Z,11.62
2019-03-22T08:11:12.933Z,11.88
2019-03-22T08:13:44.371Z,12.49
2019-03-22T08:16:15.760Z,13.07
2019-03-22T08:18:47.134Z,12.94
2019-03-22T08:21:18.639Z,13.19
2019-03-22T08:23:50.038Z,12.92
2019-03-22T08:26:21.493Z,13.32
2019-03-22T08:28:52.929Z,13.32
2019-03-22T08:31:25.934Z,13.18
2019-03-22T08:33:57.461Z,13.14
2019-03-22T08:36:29.024Z,13.02
2019-03-22T08:39:00.465Z,12.76
2019-03-22T08:41:33.387Z,13.02
2019-03-22T08:44:04.683Z,12.69
2019-03-22T08:46:37.289Z,12.88
2019-03-22T08:49:09.628Z,13.02
2019-03-22T08:51:41.239Z,13.02
2019-03-22T08:54:12.669Z,13.08
2019-03-22T08:56:44.050Z,13.07
2019-03-22T08:59:15.474Z,13.16
2019-03-22T09:01:46.933Z,13.55
2019-03-22T09:04:18.357Z,13.52
2019-03-22T09:06:49.924Z,13.21
2019-03-22T09:09:21.320Z,12.84
2019-03-22T09:11:52.677Z,12.86
2019-03-22T09:14:24.085Z,13.20
2019-03-22T09:16:55.493Z,13.47
2019-03-22T09:19:26.996Z,13.60
2019-03-22T09:21:59.592Z,13.45
2019-03-22T09:24:39.139Z,13.26
2019-03-22T09:27:04.061Z,13.50
2019-03-22T09:29:35.416Z,13.16
2019-03-22T09:32:06.853Z,12.94
2019-03-22T09:34:38.298Z,12.88
2019-03-22T09:37:09.740Z,12.81
2019-03-22T09:39:41.100Z,12.98
2019-03-22T09:42:12.517Z,13.00
2019-03-22T09:44:45.119Z,13.09
2019-03-22T09:47:17.019Z,12.91
2019-03-22T09:49:51.128Z,13.13
2019-03-22T09:52:21.518Z,12.99
2019-03-22T09:54:54.063Z,13.08
2019-03-22T09:57:25.512Z,13.04
2019-03-22T09:59:56.841Z,13.24
2019-03-22T10:02:28.076Z,13.60
2019-03-22T10:04:59.478Z,13.30
2019-03-22T10:07:32.028Z,13.24
2019-03-22T10:10:04.119Z,13.07
2019-03-22T10:12:35.497Z,12.97
2019-03-22T10:15:07.088Z,12.89
2019-03-22T10:17:38.394Z,13.12
2019-03-22T10:20:09.838Z,13.21
2019-03-22T10:22:41.207Z,13.29
2019-03-22T10:25:12.690Z,12.81
2019-03-22T10:27:44.031Z,12.86
2019-03-22T10:30:16.972Z,12.66
2019-03-22T10:32:48.341Z,12.68
2019-03-22T10:35:26.019Z,12.56
2019-03-22T10:38:00.324Z,12.49
2019-03-22T10:40:25.994Z,12.64
2019-03-22T10:42:57.310Z,12.68
2019-03-22T10:45:28.726Z,12.66
2019-03-22T10:48:00.093Z,12.59
2019-03-22T10:50:31.476Z,12.95
2019-03-22T10:53:02.770Z,12.95
2019-03-22T10:55:35.660Z,12.91
2019-03-22T10:58:20.215Z,13.01
2019-03-22T11:00:40.332Z,12.95
2019-03-22T11:03:11.706Z,13.11
2019-03-22T11:05:43.219Z,13.15
2019-03-22T11:08:14.656Z,12.93
2019-03-22T11:10:46.026Z,12.80
2019-03-22T11:13:18.433Z,12.82
2019-03-22T11:15:49.930Z,12.77
2019-03-22T11:18:21.358Z,12.67
2019-03-22T11:20:52.706Z,12.34
2019-03-22T11:23:24.098Z,12.42
2019-03-22T11:26:03.847Z,12.24
2019-03-22T11:28:28.532Z,11.81
2019-03-22T11:31:04.606Z,11.67
2019-03-22T11:33:32.984Z,12.00
2019-03-22T11:36:04.361Z,12.22
2019-03-22T11:38:35.774Z,12.00
2019-03-22T11:41:07.177Z,11.93
2019-03-22T11:43:38.620Z,12.01
2019-03-22T11:46:09.956Z,11.79
2019-03-22T11:48:41.427Z,11.88
2019-03-22T11:51:12.849Z,11.72
2019-03-22T11:53:44.223Z,11.71
2019-03-22T11:56:15.544Z,11.92
2019-03-22T11:58:47.041Z,12.02
2019-03-22T12:01:20.381Z,12.02
2019-03-22T12:03:51.558Z,12.07
2019-03-22T12:06:22.796Z,11.78
2019-03-22T12:08:54.032Z,11.96
2019-03-22T12:11:25.348Z,11.88
2019-03-22T12:13:56.684Z,11.89
2019-03-22T12:16:28.016Z,11.53
2019-03-22T12:19:00.519Z,11.60
2019-03-22T12:21:31.810Z,11.65
2019-03-22T12:24:03.244Z,11.48
2019-03-22T12:26:34.684Z,11.58
2019-03-22T12:29:06.080Z,11.53
2019-03-22T12:31:37.420Z,11.54
2019-03-22T12:34:08.810Z,11.86
2019-03-22T12:36:40.187Z,11.82
2019-03-22T12:39:11.429Z,11.74
2019-03-22T12:41:42.855Z,11.66
2019-03-22T12:44:14.251Z,11.84
2019-03-22T12:46:45.569Z,11.86
2019-03-22T12:49:17.014Z,11.91
2019-03-22T12:51:48.384Z,11.68
2019-03-22T12:54:19.804Z,11.55
2019-03-22T12:56:51.307Z,11.48
2019-03-22T12:59:22.572Z,11.33
2019-03-22T13:01:53.979Z,11.36
2019-03-22T13:04:25.336Z,11.45
2019-03-22T13:06:56.716Z,11.54
2019-03-22T13:09:28.060Z,11.49
2019-03-22T13:11:59.369Z,11.75
2019-03-22T13:14:30.737Z,11.63
2019-03-22T13:17:02.091Z,11.51
2019-03-22T13:19:34.851Z,11.75
2019-03-22T13:22:06.300Z,11.60
2019-03-22T13:24:37.690Z,11.73
2019-03-22T13:27:09.040Z,11.80
2019-03-22T13:29:40.399Z,11.72
2019-03-22T13:32:11.852Z,11.81
2019-03-22T13:34:43.206Z,11.86
2019-03-22T13:37:14.651Z,11.76
2019-03-22T13:39:46.188Z,11.59
2019-03-22T13:42:17.596Z,11.42
2019-03-22T13:44:48.957Z,11.36
2019-03-22T13:47:20.338Z,11.21
2019-03-22T13:49:51.878Z,11.13
2019-03-22T13:52:24.860Z,10.99
2019-03-22T13:54:56.229Z,10.56
2019-03-22T13:57:27.522Z,10.69
2019-03-22T13:59:58.858Z,10.63
2019-03-22T14:02:30.248Z,10.55
2019-03-22T14:05:01.664Z,10.25
2019-03-22T14:07:34.172Z,10.20
2019-03-22T14:10:07.559Z,10.41
2019-03-22T14:12:38.990Z,10.60
2019-03-22T14:15:10.386Z,10.56
2019-03-22T14:17:41.649Z,10.49
2019-03-22T14:20:13.449Z,10.69
2019-03-22T14:22:44.775Z,10.70
2019-03-22T14:25:16.046Z,10.86
2019-03-22T14:27:47.484Z,10.80
2019-03-22T14:30:18.828Z,10.86
2019-03-22T14:32:50.150Z,10.84
2019-03-22T14:35:23.901Z,10.76
2019-03-22T14:37:55.250Z,10.85
2019-03-22T14:40:26.570Z,10.92
2019-03-22T14:42:57.915Z,11.08
2019-03-22T14:45:29.291Z,11.23
2019-03-22T14:48:00.660Z,11.04
2019-03-22T14:50:31.979Z,11.01
2019-03-22T14:53:03.519Z,11.25
2019-03-22T14:55:35.092Z,11.09
2019-03-22T14:58:06.407Z,11.16
2019-03-22T15:00:37.715Z,10.92
2019-03-22T15:03:24.566Z,11.16
2019-03-22T15:05:56.331Z,11.18
2019-03-22T15:08:28.891Z,10.91
2019-03-22T15:11:00.271Z,10.85
2019-03-22T15:13:33.172Z,10.87
2019-03-22T15:16:06.197Z,10.60
2019-03-22T15:18:45.173Z,10.78
2019-03-22T15:21:21.111Z,10.70
2019-03-22T15:24:03.119Z,10.79
2019-03-22T15:26:31.129Z,10.87
2019-03-22T15:29:13.153Z,10.84
2019-03-22T15:32:02.289Z,10.81
2019-03-22T15:34:38.259Z,10.94
2019-03-22T15:37:11.109Z,10.66
2019-03-22T15:39:55.750Z,10.79
2019-03-22T15:42:27.154Z,10.70
2019-03-22T15:44:58.589Z,10.91
2019-03-22T15:47:30.103Z,10.70
2019-03-22T15:50:02.454Z,10.62
2019-03-22T15:52:33.815Z,10.70
2019-03-22T15:55:08.403Z,10.68
2019-03-22T15:57:39.714Z,10.67
2019-03-22T16:00:16.651Z,10.61
2019-03-22T16:02:47.917Z,10.57
2019-03-22T16:05:19.315Z,10.70
2019-03-22T16:07:50.735Z,10.77
2019-03-22T16:10:22.141Z,10.68
2019-03-22T16:12:54.083Z,10.51
2019-03-22T16:15:25.476Z,7.72
2019-03-22T16:17:56.705Z,6.07
2019-03-22T16:20:27.989Z,6.07
2019-03-22T16:22:59.461Z,6.09
2019-03-22T16:25:30.700Z,5.92
2019-03-22T16:28:02.128Z,5.62
2019-03-22T16:30:33.405Z,5.58
2019-03-22T16:33:04.568Z,5.61
2019-03-22T16:35:35.850Z,5.49
2019-03-22T16:38:07.135Z,5.53
2019-03-22T16:40:38.502Z,5.34
2019-03-22T16:43:09.736Z,5.01
2019-03-22T16:45:41.959Z,5.44
2019-03-22T16:48:13.248Z,5.77
2019-03-22T16:50:44.477Z,5.59
2019-03-22T16:53:15.911Z,5.30
2019-03-22T16:55:47.235Z,5.39
2019-03-22T16:58:18.656Z,5.46
2019-03-22T17:00:50.191Z,5.52
2019-03-22T17:03:24.115Z,5.36
2019-03-22T17:05:55.547Z,5.49
2019-03-22T17:08:26.892Z,5.35
2019-03-22T17:10:58.160Z,5.31
2019-03-22T17:13:29.368Z,5.45
2019-03-22T17:16:02.045Z,5.23
2019-03-22T17:18:33.514Z,5.52
2019-03-22T17:21:04.767Z,5.48
2019-03-22T17:23:35.983Z,5.50
2019-03-22T17:26:07.370Z,5.56
2019-03-22T17:28:38.606Z,5.69
2019-03-22T17:31:09.893Z,5.56
2019-03-22T17:33:41.095Z,5.57
2019-03-22T17:36:12.390Z,5.64
2019-03-22T17:38:43.678Z,5.41
2019-03-22T17:41:14.888Z,5.68
2019-03-22T17:43:46.184Z,5.68
2019-03-22T17:46:17.310Z,5.61
2019-03-22T17:48:48.541Z,5.47
2019-03-22T17:51:19.870Z,5.47
2019-03-22T17:53:51.080Z,5.48
2019-03-22T17:56:22.263Z,5.35
2019-03-22T17:58:53.505Z,5.49
2019-03-22T18:01:24.664Z,5.49
2019-03-22T18:03:55.864Z,5.41
2019-03-22T18:06:27.058Z,5.51
2019-03-22T18:08:58.281Z,5.44
2019-03-22T18:11:29.599Z,5.64
2019-03-22T18:14:00.832Z,5.48
2019-03-22T18:16:32.118Z,5.43
2019-03-22T18:19:04.644Z,5.56
2019-03-22T18:21:35.790Z,5.45
2019-03-22T18:24:07.035Z,5.46
2019-03-22T18:26:38.251Z,5.44
2019-03-22T18:29:09.464Z,5.52
2019-03-22T18:31:40.708Z,5.51
2019-03-22T18:34:12.001Z,5.61
2019-03-22T18:36:43.266Z,5.60
2019-03-22T18:39:14.401Z,5.62
2019-03-22T18:41:45.532Z,5.67
2019-03-22T18:44:16.839Z,5.61
2019-03-22T18:46:49.303Z,5.64
2019-03-22T18:49:20.616Z,5.73
2019-03-22T18:51:51.897Z,5.73
2019-03-22T18:54:23.035Z,5.82
2019-03-22T18:56:54.274Z,5.77
2019-03-22T18:59:25.557Z,5.66
2019-03-22T19:01:56.861Z,5.70
2019-03-22T19:04:28.025Z,5.79
2019-03-22T19:06:59.395Z,6.00
2019-03-22T19:09:30.547Z,5.83
2019-03-22T19:12:01.846Z,5.67
2019-03-22T19:14:33.087Z,5.64
2019-03-22T19:17:04.378Z,5.77
2019-03-22T19:19:36.799Z,5.77
2019-03-22T19:22:07.934Z,5.89
2019-03-22T19:24:39.333Z,5.96
2019-03-22T19:27:10.685Z,5.93
2019-03-22T19:29:41.941Z,5.93
2019-03-22T19:32:13.928Z,5.88
2019-03-22T19:34:53.921Z,5.90
2019-03-22T19:37:17.323Z,5.66
2019-03-22T19:39:48.537Z,5.80
2019-03-22T19:42:19.820Z,5.78
2019-03-22T19:44:51.142Z,5.64
2019-03-22T19:47:22.399Z,5.84
2019-03-22T19:49:53.619Z,5.93
2019-03-22T19:52:26.136Z,5.90
2019-03-22T19:54:57.459Z,5.68
2019-03-22T19:57:28.791Z,5.59
2019-03-22T20:00:00.019Z,5.46
2019-03-22T20:02:31.281Z,5.59
2019-03-22T20:05:04.938Z,5.53
2019-03-22T20:07:35.492Z,5.47
2019-03-22T20:10:09.838Z,5.44
2019-03-22T20:12:41.097Z,5.39
2019-03-22T20:15:12.349Z,5.47
2019-03-22T20:17:43.684Z,5.52
2019-03-22T20:20:15.960Z,5.58
2019-03-22T20:22:47.306Z,5.48
2019-03-22T20:25:18.650Z,5.55
2019-03-22T20:27:49.894Z,5.54
2019-03-22T20:30:21.462Z,5.34
2019-03-22T20:32:52.825Z,5.31
2019-03-22T20:35:24.196Z,5.56
2019-03-22T20:37:55.582Z,5.39
2019-03-22T20:40:26.965Z,5.40
2019-03-22T20:42:58.416Z,5.34
2019-03-22T20:45:29.733Z,5.42
2019-03-22T20:48:01.091Z,5.38
2019-03-22T20:50:36.133Z,5.39
2019-03-22T20:53:05.526Z,5.35
2019-03-22T20:55:36.738Z,5.35
2019-03-22T20:58:08.070Z,5.30
2019-03-22T21:00:39.285Z,5.35
2019-03-22T21:03:10.644Z,5.34
2019-03-22T21:05:44.679Z,5.20
2019-03-22T21:08:15.942Z,5.32
2019-03-22T21:10:47.349Z,5.25
2019-03-22T21:13:18.811Z,5.28
2019-03-22T21:15:50.135Z,5.21
2019-03-22T21:18:21.472Z,5.23
2019-03-22T21:20:52.896Z,5.22
2019-03-22T21:23:24.228Z,5.24
2019-03-22T21:25:55.417Z,5.21
2019-03-22T21:28:26.687Z,5.30
2019-03-22T21:30:57.985Z,5.21
2019-03-22T21:33:29.300Z,5.17
2019-03-22T21:36:01.500Z,5.29
2019-03-22T21:38:32.886Z,5.30
2019-03-22T21:41:04.293Z,5.17
2019-03-22T21:43:35.546Z,5.28
2019-03-22T21:46:06.807Z,5.21
2019-03-22T21:48:38.065Z,5.18
2019-03-22T21:51:09.286Z,5.14
2019-03-22T21:53:40.507Z,5.12
2019-03-22T21:56:11.820Z,5.13
2019-03-22T21:58:43.065Z,4.98
2019-03-22T22:01:15.327Z,5.00
2019-03-22T22:03:46.587Z,5.00
2019-03-22T22:06:17.873Z,4.90
2019-03-22T22:08:49.243Z,4.88
2019-03-22T22:11:20.392Z,5.00
2019-03-22T22:13:51.685Z,4.86
2019-03-22T22:16:22.894Z,4.91
2019-03-22T22:18:54.151Z,4.96
2019-03-22T22:21:25.233Z,4.96
2019-03-22T22:23:56.694Z,4.93
2019-03-22T22:26:27.870Z,4.88
2019-03-22T22:28:59.145Z,4.79
2019-03-22T22:31:31.377Z,4.73
2019-03-22T22:34:02.659Z,4.71
2019-03-22T22:36:33.869Z,4.62
2019-03-22T22:39:06.232Z,4.59
2019-03-22T22:41:39.046Z,4.72
2019-03-22T22:44:10.278Z,4.56
2019-03-22T22:46:41.478Z,4.74
2019-03-22T22:49:12.689Z,4.70
2019-03-22T22:51:44.149Z,4.71
2019-03-22T22:54:15.360Z,4.50
2019-03-22T22:56:46.582Z,4.57
2019-03-22T22:59:17.940Z,4.72
2019-03-22T23:01:49.269Z,4.76
2019-03-22T23:04:20.568Z,4.72
2019-03-22T23:06:51.827Z,4.49
2019-03-22T23:09:23.051Z,4.57
2019-03-22T23:11:54.278Z,4.63
2019-03-22T23:14:27.523Z,4.71
2019-03-22T23:16:58.799Z,4.69
2019-03-22T23:19:29.923Z,4.69
2019-03-22T23:22:01.181Z,4.57
2019-03-22T23:24:32.503Z,4.61
2019-03-22T23:27:03.812Z,4.55
2019-03-22T23:29:35.048Z,4.60
2019-03-22T23:32:06.429Z,4.59
2019-03-22T23:34:37.629Z,4.61
2019-03-22T23:37:08.717Z,4.66
2019-03-22T23:39:40.002Z,4.50
2019-03-22T23:42:11.254Z,4.58
2019-03-22T23:44:42.455Z,4.64
2019-03-22T23:47:13.798Z,4.55
2019-03-22T23:49:45.085Z,4.79
2019-03-22T23:52:16.394Z,4.78
2019-03-22T23:54:47.666Z,4.72
2019-03-22T23:57:18.922Z,4.64
2019-03-22T23:59:50.117Z,4.86
